createdAt,value
2023-03-21T00:01:09.777Z,7.97
2023-03-21T00:02:50.315Z,7.98
2023-03-21T00:04:40.884Z,8.01
2023-03-21T00:06:11.069Z,7.98
2023-03-21T00:07:51.453Z,8
2023-03-21T00:09:31.801Z,7.98
2023-03-21T00:11:12.197Z,7.98
2023-03-21T00:12:52.472Z,7.97
2023-03-21T00:14:32.878Z,7.98
2023-03-21T00:16:31.286Z,8
2023-03-21T00:17:53.607Z,7.97
2023-03-21T00:19:33.989Z,7.97
2023-03-21T00:21:44.273Z,7.97
2023-03-21T00:22:54.734Z,7.94
2023-03-21T00:24:35.080Z,7.96
2023-03-21T00:26:15.448Z,7.94
2023-03-21T00:28:07.508Z,7.96
2023-03-21T00:29:36.267Z,7.97
2023-03-21T00:31:16.673Z,7.97
2023-03-21T00:32:57.108Z,7.97
2023-03-21T00:34:43.205Z,7.96
2023-03-21T00:36:17.974Z,7.97
2023-03-21T00:37:58.329Z,8
2023-03-21T00:39:38.759Z,7.97
2023-03-21T00:41:31.683Z,7.98
2023-03-21T00:42:59.550Z,8
2023-03-21T00:44:39.938Z,8.03
2023-03-21T00:46:21.729Z,8.04
2023-03-21T00:48:00.831Z,8.05
2023-03-21T00:49:41.039Z,8.04
2023-03-21T00:51:21.497Z,8.1
2023-03-21T00:53:01.828Z,8.11
2023-03-21T00:54:42.208Z,8.08
2023-03-21T00:56:22.612Z,8.07
2023-03-21T00:58:02.896Z,8.07
2023-03-21T00:59:43.228Z,8.08
2023-03-21T01:01:23.544Z,8.07
2023-03-21T01:03:14.210Z,8.08
2023-03-21T01:04:44.126Z,8.07
2023-03-21T01:06:24.432Z,8.08
2023-03-21T01:08:20.643Z,8.07
2023-03-21T01:09:44.997Z,8.05
2023-03-21T01:11:25.312Z,8.07
2023-03-21T01:13:05.618Z,8.04
2023-03-21T01:14:45.917Z,8.05
2023-03-21T01:16:26.286Z,8.05
2023-03-21T01:18:06.671Z,8.05
2023-03-21T01:19:52.101Z,8.04
2023-03-21T01:21:27.399Z,8.05
2023-03-21T01:23:07.790Z,8.04
2023-03-21T01:25:02.904Z,8.03
2023-03-21T01:26:28.577Z,8.01
2023-03-21T01:28:09.011Z,8.03
2023-03-21T01:29:49.401Z,8.05
2023-03-21T01:31:29.827Z,8.03
2023-03-21T01:33:10.198Z,8.03
2023-03-21T01:34:50.570Z,8.01
2023-03-21T01:36:30.955Z,8.03
2023-03-21T01:38:11.334Z,8
2023-03-21T01:39:51.719Z,8.04
2023-03-21T01:41:47.493Z,8.04
2023-03-21T01:43:12.666Z,8.04
2023-03-21T01:44:53.129Z,8.05
2023-03-21T01:46:45.341Z,8.04
2023-03-21T01:48:14.051Z,8.04
2023-03-21T01:49:54.343Z,8.04
2023-03-21T01:51:34.780Z,8.04
2023-03-21T01:53:15.216Z,8.03
2023-03-21T01:54:55.606Z,8.03
2023-03-21T01:56:36.029Z,8.03
2023-03-21T01:58:16.410Z,8.03
2023-03-21T01:59:56.793Z,8.03
2023-03-21T02:01:37.164Z,8.03
2023-03-21T02:03:29.577Z,8.04
2023-03-21T02:04:58.054Z,8.01
2023-03-21T02:06:38.452Z,8.01
2023-03-21T02:08:19.861Z,8.03
2023-03-21T02:09:59.238Z,8.04
2023-03-21T02:11:39.649Z,8.07
2023-03-21T02:13:20.005Z,8.07
2023-03-21T02:15:00.413Z,8.04
2023-03-21T02:16:40.821Z,8.05
2023-03-21T02:18:21.123Z,8.05
2023-03-21T02:20:01.598Z,8.05
2023-03-21T02:21:41.985Z,8.04
2023-03-21T02:23:22.340Z,8.03
2023-03-21T02:25:06.158Z,8.04
2023-03-21T02:26:45.139Z,8.04
2023-03-21T02:28:23.272Z,8.03
2023-03-21T02:30:03.553Z,8.01
2023-03-21T02:31:43.905Z,8
2023-03-21T02:33:24.167Z,8
2023-03-21T02:35:04.470Z,8.03
2023-03-21T02:36:44.857Z,8.01
2023-03-21T02:38:25.086Z,8.01
2023-03-21T02:40:05.579Z,7.98
2023-03-21T02:41:45.938Z,7.98
2023-03-21T02:43:26.264Z,7.96
2023-03-21T02:45:06.685Z,7.94
2023-03-21T02:46:51.209Z,7.93
2023-03-21T02:48:35.372Z,7.9
2023-03-21T02:50:08.009Z,7.92
2023-03-21T02:51:48.437Z,7.9
2023-03-21T02:53:28.850Z,7.9
2023-03-21T02:55:09.262Z,7.89
2023-03-21T02:56:49.797Z,7.86
2023-03-21T02:58:30.165Z,7.86
2023-03-21T03:00:16.140Z,7.89
2023-03-21T03:01:51.111Z,7.87
2023-03-21T03:03:34.741Z,7.83
2023-03-21T03:05:20.677Z,7.82
2023-03-21T03:06:52.160Z,7.8
2023-03-21T03:08:42.894Z,7.77
2023-03-21T03:10:12.984Z,7.75
2023-03-21T03:11:53.397Z,7.73
2023-03-21T03:13:33.822Z,7.75
2023-03-21T03:15:14.348Z,7.72
2023-03-21T03:16:54.764Z,7.72
2023-03-21T03:18:35.130Z,7.69
2023-03-21T03:20:17.040Z,7.69
2023-03-21T03:21:56.022Z,7.66
2023-03-21T03:23:36.825Z,7.65
2023-03-21T03:25:25.077Z,7.66
2023-03-21T03:26:57.502Z,7.67
2023-03-21T03:28:37.867Z,7.69
2023-03-21T03:30:18.155Z,7.69
2023-03-21T03:31:58.629Z,7.66
2023-03-21T03:33:38.951Z,7.65
2023-03-21T03:35:19.282Z,7.67
2023-03-21T03:36:59.710Z,7.72
2023-03-21T03:38:39.887Z,7.7
2023-03-21T03:40:20.204Z,7.72
2023-03-21T03:42:12.431Z,7.7
2023-03-21T03:43:41.119Z,7.69
2023-03-21T03:45:21.538Z,7.67
2023-03-21T03:47:01.927Z,7.7
2023-03-21T03:48:42.431Z,7.72
2023-03-21T03:50:22.807Z,7.72
2023-03-21T03:52:03.191Z,7.69
2023-03-21T03:53:43.598Z,7.67
2023-03-21T03:55:24.010Z,7.69
2023-03-21T03:57:04.401Z,7.67
2023-03-21T03:58:46.118Z,7.69
2023-03-21T04:00:25.293Z,7.72
2023-03-21T04:02:05.830Z,7.72
2023-03-21T04:03:50.473Z,7.72
2023-03-21T04:05:26.335Z,7.72
2023-03-21T04:07:06.807Z,7.69
2023-03-21T04:08:47.245Z,7.72
2023-03-21T04:10:27.694Z,7.7
2023-03-21T04:12:08.059Z,7.72
2023-03-21T04:13:48.379Z,7.69
2023-03-21T04:15:28.679Z,7.7
2023-03-21T04:17:08.963Z,7.67
2023-03-21T04:18:49.269Z,7.66
2023-03-21T04:20:36.504Z,7.65
2023-03-21T04:22:09.862Z,7.62
2023-03-21T04:23:50.182Z,7.59
2023-03-21T04:25:33.888Z,7.58
2023-03-21T04:27:10.767Z,7.58
2023-03-21T04:28:51.047Z,7.56
2023-03-21T04:30:31.385Z,7.51
2023-03-21T04:32:11.814Z,7.51
2023-03-21T04:33:51.974Z,7.48
2023-03-21T04:35:32.404Z,7.48
2023-03-21T04:37:12.518Z,7.45
2023-03-21T04:38:52.867Z,7.42
2023-03-21T04:40:33.153Z,7.41
2023-03-21T04:42:13.535Z,7.41
2023-03-21T04:43:54.429Z,7.39
2023-03-21T04:45:34.445Z,7.39
2023-03-21T04:47:14.874Z,7.39
2023-03-21T04:48:55.264Z,7.36
2023-03-21T04:50:35.866Z,7.38
2023-03-21T04:52:15.960Z,7.35
2023-03-21T04:53:56.338Z,7.35
2023-03-21T04:55:37.024Z,7.34
2023-03-21T04:57:17.146Z,7.32
2023-03-21T04:58:57.589Z,7.34
2023-03-21T05:00:38.002Z,7.34
2023-03-21T05:02:18.369Z,7.34
2023-03-21T05:03:58.932Z,7.32
2023-03-21T05:05:39.681Z,7.34
2023-03-21T05:07:19.679Z,7.32
2023-03-21T05:09:00.248Z,7.32
2023-03-21T05:10:40.506Z,7.34
2023-03-21T05:12:20.776Z,7.35
2023-03-21T05:14:01.135Z,7.35
2023-03-21T05:15:41.463Z,7.38
2023-03-21T05:17:21.879Z,7.35
2023-03-21T05:19:02.277Z,7.32
2023-03-21T05:20:42.728Z,7.36
2023-03-21T05:22:23.149Z,7.41
2023-03-21T05:24:03.644Z,7.38
2023-03-21T05:25:43.990Z,7.39
2023-03-21T05:27:24.367Z,7.39
2023-03-21T05:29:04.811Z,7.39
2023-03-21T05:30:45.278Z,7.41
2023-03-21T05:32:25.688Z,7.41
2023-03-21T05:34:06.066Z,7.41
2023-03-21T05:35:46.434Z,7.42
2023-03-21T05:37:26.835Z,7.44
2023-03-21T05:39:07.255Z,7.45
2023-03-21T05:40:47.571Z,7.45
2023-03-21T05:42:28.033Z,7.45
2023-03-21T05:44:08.424Z,7.45
2023-03-21T05:45:48.965Z,7.48
2023-03-21T05:47:29.167Z,7.48
2023-03-21T05:49:09.575Z,7.51
2023-03-21T05:50:49.949Z,7.51
2023-03-21T05:52:30.348Z,7.51
2023-03-21T05:54:10.843Z,7.54
2023-03-21T05:55:51.177Z,7.54
2023-03-21T05:57:31.555Z,7.55
2023-03-21T05:59:11.965Z,7.55
2023-03-21T06:00:52.329Z,7.58
2023-03-21T06:02:32.867Z,7.59
2023-03-21T06:04:13.207Z,7.61
2023-03-21T06:05:53.443Z,7.62
2023-03-21T06:07:33.842Z,7.61
2023-03-21T06:09:14.221Z,7.66
2023-03-21T06:10:54.559Z,7.67
2023-03-21T06:12:35.015Z,7.7
2023-03-21T06:14:15.397Z,7.73
2023-03-21T06:15:55.803Z,7.77
2023-03-21T06:17:36.229Z,7.82
2023-03-21T06:19:16.608Z,7.85
2023-03-21T06:20:57.110Z,7.85
2023-03-21T06:22:37.444Z,7.92
2023-03-21T06:24:17.735Z,7.96
2023-03-21T06:25:58.067Z,7.97
2023-03-21T06:27:38.439Z,8
2023-03-21T06:29:18.856Z,8.01
2023-03-21T06:30:59.284Z,8.07
2023-03-21T06:32:39.602Z,8.07
2023-03-21T06:34:20.047Z,8.11
2023-03-21T06:36:00.478Z,8.13
2023-03-21T06:37:40.797Z,8.15
2023-03-21T06:39:21.206Z,8.17
2023-03-21T06:41:01.583Z,8.2
2023-03-21T06:42:41.975Z,8.24
2023-03-21T06:44:22.363Z,8.27
2023-03-21T06:46:02.764Z,8.27
2023-03-21T06:47:43.193Z,8.34
2023-03-21T06:49:23.581Z,8.35
2023-03-21T06:51:04.025Z,8.4
2023-03-21T06:52:44.506Z,8.37
2023-03-21T06:54:24.901Z,8.42
2023-03-21T06:56:05.294Z,8.42
2023-03-21T06:57:45.733Z,8.44
2023-03-21T06:59:26.157Z,8.45
2023-03-21T07:01:06.584Z,8.49
2023-03-21T07:02:48.306Z,8.52
2023-03-21T07:04:27.272Z,8.54
2023-03-21T07:06:07.708Z,8.56
2023-03-21T07:07:48.001Z,8.61
2023-03-21T07:09:28.459Z,8.63
2023-03-21T07:11:08.916Z,8.66
2023-03-21T07:12:49.312Z,8.69
2023-03-21T07:14:29.804Z,8.72
2023-03-21T07:16:10.271Z,8.75
2023-03-21T07:17:50.554Z,8.82
2023-03-21T07:19:30.945Z,8.84
2023-03-21T07:21:11.400Z,8.87
2023-03-21T07:22:51.668Z,8.9
2023-03-21T07:24:32.082Z,8.96
2023-03-21T07:26:12.554Z,8.99
2023-03-21T07:27:52.957Z,9.04
2023-03-21T07:29:33.412Z,9.04
2023-03-21T07:31:13.836Z,9.1
2023-03-21T07:32:54.300Z,9.14
2023-03-21T07:34:34.660Z,9.19
2023-03-21T07:36:15.064Z,9.21
2023-03-21T07:37:55.433Z,9.24
2023-03-21T07:39:35.743Z,9.26
2023-03-21T07:42:56.369Z,9.4
2023-03-21T07:44:36.683Z,9.44
2023-03-21T07:46:16.983Z,9.51
2023-03-21T07:47:57.338Z,9.54
2023-03-21T07:49:37.525Z,9.62
2023-03-21T07:51:17.830Z,9.65
2023-03-21T07:52:58.123Z,9.74
2023-03-21T07:54:38.439Z,9.74
2023-03-21T07:56:18.734Z,9.77
2023-03-21T07:57:59.011Z,9.78
2023-03-21T07:59:39.360Z,9.88
2023-03-21T08:01:19.643Z,9.92
2023-03-21T08:03:00.044Z,9.98
2023-03-21T08:04:40.228Z,10
2023-03-21T08:06:20.539Z,10.03
2023-03-21T08:08:00.921Z,10.14
2023-03-21T08:09:41.345Z,10.2
2023-03-21T08:11:21.645Z,10.27
2023-03-21T08:13:01.967Z,10.32
2023-03-21T08:14:42.467Z,10.41
2023-03-21T08:16:22.909Z,10.53
2023-03-21T08:18:03.308Z,10.6
2023-03-21T08:19:43.770Z,10.7
2023-03-21T08:21:24.209Z,10.79
2023-03-21T08:23:04.491Z,10.85
2023-03-21T08:24:44.888Z,10.86
2023-03-21T08:26:25.316Z,10.88
2023-03-21T08:28:05.809Z,11.01
2023-03-21T08:29:46.206Z,11.11
2023-03-21T08:31:26.721Z,11.19
2023-03-21T08:33:06.987Z,11.26
2023-03-21T08:34:47.471Z,11.3
2023-03-21T08:36:27.892Z,11.39
2023-03-21T08:38:08.184Z,11.44
2023-03-21T08:39:48.556Z,11.47
2023-03-21T08:41:28.777Z,11.53
2023-03-21T08:43:09.092Z,11.59
2023-03-21T08:44:49.574Z,11.67
2023-03-21T08:46:30.020Z,11.8
2023-03-21T08:48:10.412Z,11.9
2023-03-21T08:49:50.741Z,11.98
2023-03-21T08:51:31.096Z,11.97
2023-03-21T08:53:11.416Z,12.05
2023-03-21T08:54:51.773Z,12.14
2023-03-21T08:56:32.159Z,12.24
2023-03-21T08:58:12.567Z,12.33
2023-03-21T08:59:53.011Z,12.42
2023-03-21T09:01:33.392Z,12.48
2023-03-21T09:03:13.693Z,12.55
2023-03-21T09:04:54.156Z,12.56
2023-03-21T09:06:34.478Z,12.57
2023-03-21T09:08:14.935Z,12.69
2023-03-21T09:10:08.405Z,12.79
2023-03-21T09:11:35.692Z,12.94
2023-03-21T09:13:16.092Z,13.1
2023-03-21T09:14:56.509Z,13.13
2023-03-21T09:16:36.871Z,13.08
2023-03-21T09:18:17.211Z,13.1
2023-03-21T09:19:57.578Z,13.15
2023-03-21T09:21:37.943Z,13.14
2023-03-21T09:23:18.213Z,13.15
2023-03-21T09:24:58.443Z,13.14
2023-03-21T09:26:38.786Z,13.15
2023-03-21T09:28:19.205Z,13.1
2023-03-21T09:29:59.648Z,13.07
2023-03-21T09:31:40.280Z,13.01
2023-03-21T09:33:20.521Z,13.01
2023-03-21T09:35:00.949Z,12.98
2023-03-21T09:36:41.382Z,13
2023-03-21T09:38:21.671Z,12.98
2023-03-21T09:40:02.093Z,13.03
2023-03-21T09:41:42.517Z,13.06
2023-03-21T09:43:22.911Z,13.06
2023-03-21T09:45:03.285Z,13.06
2023-03-21T09:46:43.806Z,13.03
2023-03-21T09:48:24.141Z,13.07
2023-03-21T09:50:14.133Z,13.14
2023-03-21T09:51:45.049Z,13.1
2023-03-21T09:53:25.373Z,13.04
2023-03-21T09:55:05.773Z,12.9
2023-03-21T09:56:46.194Z,12.83
2023-03-21T09:58:26.579Z,12.8
2023-03-21T10:00:06.992Z,12.84
2023-03-21T10:01:47.373Z,12.86
2023-03-21T10:03:27.747Z,12.82
2023-03-21T10:05:08.234Z,12.8
2023-03-21T10:06:48.690Z,12.77
2023-03-21T10:08:29.059Z,12.69
2023-03-21T10:10:09.479Z,12.69
2023-03-21T10:11:49.821Z,12.67
2023-03-21T10:13:30.175Z,12.7
2023-03-21T10:15:10.456Z,12.76
2023-03-21T10:16:50.879Z,12.8
2023-03-21T10:18:31.053Z,12.77
2023-03-21T10:20:12.034Z,12.82
2023-03-21T10:22:06.975Z,12.84
2023-03-21T10:23:31.943Z,12.84
2023-03-21T10:25:12.224Z,12.82
2023-03-21T10:26:52.502Z,12.77
2023-03-21T10:28:46.212Z,12.75
2023-03-21T10:30:13.101Z,12.72
2023-03-21T10:31:53.448Z,12.79
2023-03-21T10:33:33.692Z,12.84
2023-03-21T10:35:13.981Z,12.87
2023-03-21T10:36:54.277Z,12.8
2023-03-21T10:38:34.568Z,12.84
2023-03-21T10:40:14.834Z,12.9
2023-03-21T10:41:55.250Z,12.91
2023-03-21T10:43:35.708Z,12.93
2023-03-21T10:45:16.143Z,12.93
2023-03-21T10:46:56.943Z,12.94
2023-03-21T10:48:37.089Z,12.96
2023-03-21T10:50:17.485Z,12.93
2023-03-21T10:51:57.768Z,12.91
2023-03-21T10:53:38.325Z,12.79
2023-03-21T10:55:18.753Z,12.72
2023-03-21T10:56:59.159Z,12.63
2023-03-21T10:58:39.612Z,12.56
2023-03-21T11:00:20.040Z,12.52
2023-03-21T11:02:00.560Z,12.45
2023-03-21T11:03:40.854Z,12.42
2023-03-21T11:05:21.202Z,12.38
2023-03-21T11:07:01.649Z,12.29
2023-03-21T11:08:43.359Z,12.28
2023-03-21T11:10:28.664Z,12.25
2023-03-21T11:12:02.519Z,12.24
2023-03-21T11:13:42.891Z,12.22
2023-03-21T11:15:23.349Z,12.24
2023-03-21T11:17:03.758Z,12.27
2023-03-21T11:18:44.132Z,12.22
2023-03-21T11:20:24.477Z,12.24
2023-03-21T11:22:04.820Z,12.22
2023-03-21T11:23:45.259Z,12.22
2023-03-21T11:25:25.588Z,12.21
2023-03-21T11:27:05.968Z,12.21
2023-03-21T11:28:46.356Z,12.21
2023-03-21T11:30:26.797Z,12.14
2023-03-21T11:32:07.205Z,12.11
2023-03-21T11:33:47.631Z,12.12
2023-03-21T11:35:28.102Z,12.08
2023-03-21T11:37:08.507Z,12.11
2023-03-21T11:38:48.889Z,12.11
2023-03-21T11:40:29.319Z,12.18
2023-03-21T11:42:09.732Z,12.19
2023-03-21T11:43:50.242Z,12.25
2023-03-21T11:45:30.664Z,12.25
2023-03-21T11:47:11.135Z,12.29
2023-03-21T11:48:51.516Z,12.32
2023-03-21T11:50:31.844Z,12.32
2023-03-21T11:52:12.313Z,12.33
2023-03-21T11:53:52.690Z,12.36
2023-03-21T11:55:33.098Z,12.38
2023-03-21T11:57:13.556Z,12.42
2023-03-21T11:58:53.989Z,12.39
2023-03-21T12:00:34.282Z,12.42
2023-03-21T12:02:14.783Z,12.4
2023-03-21T12:03:55.214Z,12.35
2023-03-21T12:05:35.482Z,12.36
2023-03-21T12:07:15.899Z,12.28
2023-03-21T12:08:56.250Z,12.24
2023-03-21T12:10:36.605Z,12.22
2023-03-21T12:12:18.664Z,12.15
2023-03-21T12:13:57.516Z,12.15
2023-03-21T12:15:38.398Z,12.08
2023-03-21T12:17:18.286Z,12.04
2023-03-21T12:18:58.583Z,12.04
2023-03-21T12:20:38.887Z,11.95
2023-03-21T12:22:19.307Z,11.95
2023-03-21T12:23:59.685Z,11.94
2023-03-21T12:25:40.251Z,11.97
2023-03-21T12:27:20.548Z,11.95
2023-03-21T12:29:00.889Z,11.95
2023-03-21T12:30:41.263Z,11.91
2023-03-21T12:32:21.661Z,11.92
2023-03-21T12:34:02.026Z,11.92
2023-03-21T12:35:42.571Z,12.01
2023-03-21T12:37:22.878Z,12.05
2023-03-21T12:39:03.357Z,11.97
2023-03-21T12:40:43.754Z,11.97
2023-03-21T12:42:24.204Z,11.95
2023-03-21T12:44:04.572Z,11.91
2023-03-21T12:45:47.374Z,11.85
2023-03-21T12:47:25.332Z,11.85
2023-03-21T12:49:05.812Z,11.88
2023-03-21T12:50:46.190Z,11.88
2023-03-21T12:52:26.480Z,11.84
2023-03-21T12:54:06.850Z,11.82
2023-03-21T12:55:47.289Z,11.82
2023-03-21T12:57:27.646Z,11.82
2023-03-21T12:59:07.998Z,11.82
2023-03-21T13:00:48.493Z,11.82
2023-03-21T13:02:28.753Z,11.8
2023-03-21T13:04:09.193Z,11.76
2023-03-21T13:05:49.500Z,11.78
2023-03-21T13:07:29.914Z,11.8
2023-03-21T13:09:10.304Z,11.77
2023-03-21T13:10:50.770Z,11.78
2023-03-21T13:12:31.168Z,11.73
2023-03-21T13:14:11.681Z,11.73
2023-03-21T13:15:52.151Z,11.69
2023-03-21T13:17:32.516Z,11.67
2023-03-21T13:19:12.932Z,11.67
2023-03-21T13:20:53.272Z,11.67
2023-03-21T13:22:33.667Z,11.7
2023-03-21T13:24:13.990Z,11.67
2023-03-21T13:25:54.405Z,11.63
2023-03-21T13:27:34.715Z,11.64
2023-03-21T13:29:15.010Z,11.61
2023-03-21T13:30:55.320Z,11.56
2023-03-21T13:32:35.731Z,11.57
2023-03-21T13:34:16.049Z,11.53
2023-03-21T13:35:56.505Z,11.52
2023-03-21T13:37:36.923Z,11.47
2023-03-21T13:39:17.311Z,11.47
2023-03-21T13:40:57.678Z,11.44
2023-03-21T13:42:38.153Z,11.4
2023-03-21T13:44:18.579Z,11.39
2023-03-21T13:45:58.978Z,11.36
2023-03-21T13:47:39.550Z,11.37
2023-03-21T13:49:19.716Z,11.37
2023-03-21T13:51:00.861Z,11.33
2023-03-21T13:52:40.553Z,11.33
2023-03-21T13:54:20.981Z,11.36
2023-03-21T13:56:01.361Z,11.37
2023-03-21T13:57:41.726Z,11.36
2023-03-21T13:59:22.053Z,11.36
2023-03-21T14:01:02.463Z,11.39
2023-03-21T14:02:42.843Z,11.37
2023-03-21T14:04:27.179Z,11.46
2023-03-21T14:06:03.579Z,11.44
2023-03-21T14:07:43.826Z,11.47
2023-03-21T14:09:24.121Z,11.54
2023-03-21T14:11:04.449Z,11.52
2023-03-21T14:12:44.884Z,11.53
2023-03-21T14:14:32.041Z,11.52
2023-03-21T14:16:12.471Z,11.52
2023-03-21T14:17:52.985Z,11.56
2023-03-21T14:19:33.400Z,11.59
2023-03-21T14:21:17.711Z,11.61
2023-03-21T14:22:54.288Z,11.63
2023-03-21T14:24:34.632Z,11.61
2023-03-21T14:26:15.079Z,11.57
2023-03-21T14:27:55.415Z,11.54
2023-03-21T14:29:35.783Z,11.52
2023-03-21T14:31:16.261Z,11.5
2023-03-21T14:32:56.632Z,11.5
2023-03-21T14:34:37.017Z,11.46
2023-03-21T14:36:17.507Z,11.43
2023-03-21T14:37:57.796Z,11.43
2023-03-21T14:39:38.134Z,11.4
2023-03-21T14:41:18.576Z,11.39
2023-03-21T14:42:59.007Z,11.42
2023-03-21T14:44:56.209Z,11.42
2023-03-21T14:46:19.931Z,11.4
2023-03-21T14:48:00.400Z,11.39
2023-03-21T14:49:40.745Z,11.39
2023-03-21T14:51:21.178Z,11.36
2023-03-21T14:53:01.537Z,11.42
2023-03-21T14:54:41.940Z,11.36
2023-03-21T14:56:22.369Z,11.36
2023-03-21T14:58:04.158Z,11.4
2023-03-21T14:59:43.122Z,11.4
2023-03-21T15:01:23.625Z,11.39
2023-03-21T15:03:04.025Z,11.42
2023-03-21T15:04:44.312Z,11.46
2023-03-21T15:06:24.719Z,11.47
2023-03-21T15:08:05.103Z,11.44
2023-03-21T15:09:45.473Z,11.42
2023-03-21T15:11:25.918Z,11.4
2023-03-21T15:13:06.289Z,11.4
2023-03-21T15:14:46.661Z,11.37
2023-03-21T15:16:27.183Z,11.36
2023-03-21T15:18:07.510Z,11.32
2023-03-21T15:19:47.966Z,11.29
2023-03-21T15:21:28.327Z,11.29
2023-03-21T15:23:08.779Z,11.26
2023-03-21T15:24:49.159Z,11.22
2023-03-21T15:26:29.494Z,11.18
2023-03-21T15:28:09.910Z,11.19
2023-03-21T15:29:50.195Z,11.16
2023-03-21T15:31:30.645Z,11.11
2023-03-21T15:33:10.943Z,11.06
2023-03-21T15:34:51.315Z,11.05
2023-03-21T15:36:31.680Z,11.04
2023-03-21T15:38:12.045Z,11.05
2023-03-21T15:39:52.429Z,11.02
2023-03-21T15:41:32.847Z,10.99
2023-03-21T15:43:13.271Z,10.96
2023-03-21T15:44:53.561Z,10.92
2023-03-21T15:46:34.021Z,10.88
2023-03-21T15:48:14.387Z,10.85
2023-03-21T15:49:54.694Z,10.79
2023-03-21T15:51:35.060Z,10.76
2023-03-21T15:53:15.483Z,10.75
2023-03-21T15:54:56.016Z,10.71
2023-03-21T15:56:36.256Z,10.68
2023-03-21T15:58:16.624Z,10.67
2023-03-21T15:59:57.035Z,10.65
2023-03-21T16:01:37.374Z,10.61
2023-03-21T16:03:17.732Z,10.58
2023-03-21T16:04:58.187Z,10.56
2023-03-21T16:06:38.595Z,10.51
2023-03-21T16:08:19.025Z,10.5
2023-03-21T16:09:59.323Z,10.48
2023-03-21T16:11:39.812Z,10.51
2023-03-21T16:13:20.210Z,10.5
2023-03-21T16:15:00.650Z,10.47
2023-03-21T16:16:41.040Z,10.48
2023-03-21T16:18:21.410Z,10.44
2023-03-21T16:20:01.782Z,10.43
2023-03-21T16:21:42.068Z,10.41
2023-03-21T16:23:22.447Z,10.43
2023-03-21T16:25:02.814Z,10.43
2023-03-21T16:26:43.151Z,10.41
2023-03-21T16:28:23.584Z,10.39
2023-03-21T16:30:03.972Z,10.39
2023-03-21T16:31:44.453Z,10.37
2023-03-21T16:33:24.764Z,10.39
2023-03-21T16:35:05.224Z,10.39
2023-03-21T16:36:45.602Z,10.37
2023-03-21T16:38:25.960Z,10.36
2023-03-21T16:40:09.401Z,10.33
2023-03-21T16:41:46.697Z,10.33
2023-03-21T16:43:27.108Z,10.29
2023-03-21T16:45:07.613Z,10.29
2023-03-21T16:46:48.055Z,10.29
2023-03-21T16:48:28.471Z,10.27
2023-03-21T16:50:08.792Z,10.26
2023-03-21T16:51:49.186Z,10.27
2023-03-21T16:53:29.541Z,10.26
2023-03-21T16:55:09.932Z,10.23
2023-03-21T16:56:50.384Z,10.26
2023-03-21T16:58:30.756Z,10.23
2023-03-21T17:00:11.092Z,10.19
2023-03-21T17:01:54.514Z,10.16
2023-03-21T17:03:31.879Z,10.16
2023-03-21T17:05:12.292Z,10.14
2023-03-21T17:06:52.655Z,10.16
2023-03-21T17:08:33.073Z,10.17
2023-03-21T17:10:13.468Z,10.16
2023-03-21T17:11:53.890Z,10.14
2023-03-21T17:13:34.289Z,10.13
2023-03-21T17:15:14.620Z,10.12
2023-03-21T17:16:55.116Z,10.13
2023-03-21T17:18:35.387Z,10.13
2023-03-21T17:20:15.838Z,10.14
2023-03-21T17:21:56.187Z,10.16
2023-03-21T17:23:36.659Z,10.14
2023-03-21T17:25:17.039Z,10.14
2023-03-21T17:26:57.402Z,10.13
2023-03-21T17:28:37.833Z,10.13
2023-03-21T17:30:18.345Z,10.12
2023-03-21T17:31:58.640Z,10.14
2023-03-21T17:33:39.045Z,10.13
2023-03-21T17:35:19.374Z,10.16
2023-03-21T17:36:59.760Z,10.13
2023-03-21T17:38:40.134Z,10.12
2023-03-21T17:40:20.558Z,10.12
2023-03-21T17:42:00.976Z,10.14
2023-03-21T17:43:41.347Z,10.13
2023-03-21T17:45:21.727Z,10.07
2023-03-21T17:47:02.066Z,10.06
2023-03-21T17:48:42.498Z,10.05
2023-03-21T17:50:22.880Z,10.02
2023-03-21T17:52:03.230Z,9.96
2023-03-21T17:53:43.643Z,9.9
2023-03-21T17:55:24.002Z,9.84
2023-03-21T17:57:04.392Z,9.82
2023-03-21T17:58:44.841Z,9.81
2023-03-21T18:00:25.240Z,9.85
2023-03-21T18:02:05.718Z,9.78
2023-03-21T18:03:46.118Z,9.75
2023-03-21T18:05:26.640Z,9.71
2023-03-21T18:07:10.682Z,9.74
2023-03-21T18:08:47.417Z,9.71
2023-03-21T18:10:27.828Z,9.69
2023-03-21T18:12:08.256Z,9.68
2023-03-21T18:13:48.627Z,9.65
2023-03-21T18:15:30.346Z,9.61
2023-03-21T18:17:09.391Z,9.61
2023-03-21T18:18:49.820Z,9.59
2023-03-21T18:20:50.490Z,9.55
2023-03-21T18:22:10.732Z,9.54
2023-03-21T18:23:50.944Z,9.55
2023-03-21T18:25:34.378Z,9.54
2023-03-21T18:27:11.730Z,9.48
2023-03-21T18:29:43.967Z,9.5
2023-03-21T18:30:52.983Z,9.5
2023-03-21T18:32:12.861Z,9.47
2023-03-21T18:33:53.150Z,9.52
2023-03-21T18:35:33.604Z,9.47
2023-03-21T18:37:13.979Z,9.48
2023-03-21T18:38:54.356Z,9.48
2023-03-21T18:40:34.819Z,9.47
2023-03-21T18:42:20.391Z,9.48
2023-03-21T18:44:13.698Z,9.45
2023-03-21T18:45:35.945Z,9.47
2023-03-21T18:47:16.328Z,9.47
2023-03-21T18:48:57.256Z,9.42
2023-03-21T18:50:37.419Z,9.4
2023-03-21T18:52:17.535Z,9.35
2023-03-21T18:53:57.943Z,9.34
2023-03-21T18:55:46.068Z,9.38
2023-03-21T18:58:59.165Z,9.38
2023-03-21T19:00:39.784Z,9.35
2023-03-21T19:02:19.927Z,9.38
2023-03-21T19:05:40.754Z,9.33
2023-03-21T19:07:21.106Z,9.34
2023-03-21T19:09:01.973Z,9.35
2023-03-21T19:10:41.837Z,9.33
2023-03-21T19:12:22.179Z,9.37
2023-03-21T19:14:02.549Z,9.35
2023-03-21T19:15:42.882Z,9.4
2023-03-21T19:18:26.141Z,9.4
2023-03-21T19:19:03.671Z,9.37
2023-03-21T19:20:43.920Z,9.38
2023-03-21T19:22:24.280Z,9.35
2023-03-21T19:25:45.112Z,9.38
2023-03-21T19:27:25.446Z,9.38
2023-03-21T19:29:05.857Z,9.34
2023-03-21T19:30:50.366Z,9.33
2023-03-21T19:32:26.651Z,9.34
2023-03-21T19:34:07.019Z,9.33
2023-03-21T19:35:47.377Z,9.35
2023-03-21T19:37:27.707Z,9.35
2023-03-21T19:39:08.030Z,9.35
2023-03-21T19:40:48.490Z,9.34
2023-03-21T19:42:30.790Z,9.35
2023-03-21T19:44:09.267Z,9.37
2023-03-21T19:45:49.616Z,9.37
2023-03-21T19:47:29.992Z,9.37
2023-03-21T19:49:10.382Z,9.37
2023-03-21T19:51:24.443Z,9.37
2023-03-21T19:52:31.156Z,9.4
2023-03-21T19:54:11.542Z,9.4
2023-03-21T19:55:51.990Z,9.4
2023-03-21T19:57:32.407Z,9.4
2023-03-21T19:59:12.807Z,9.41
2023-03-21T20:00:53.167Z,9.41
2023-03-21T20:02:35.939Z,9.41
2023-03-21T20:04:13.888Z,9.41
2023-03-21T20:05:54.257Z,9.44
2023-03-21T20:07:34.613Z,9.42
2023-03-21T20:10:55.349Z,9.45
2023-03-21T20:12:35.706Z,9.45
2023-03-21T20:14:16.095Z,9.44
2023-03-21T20:16:01.893Z,9.45
2023-03-21T20:17:36.940Z,9.45
2023-03-21T20:19:17.381Z,9.45
2023-03-21T20:20:57.734Z,9.42
2023-03-21T20:23:05.122Z,9.45
2023-03-21T20:24:18.418Z,9.5
2023-03-21T20:25:58.797Z,9.5
2023-03-21T20:27:40.339Z,9.48
2023-03-21T20:31:00.040Z,9.48
2023-03-21T20:32:40.362Z,9.51
2023-03-21T20:34:21.353Z,9.48
2023-03-21T20:36:35.619Z,9.44
2023-03-21T20:37:41.734Z,9.44
2023-03-21T20:39:22.112Z,9.47
2023-03-21T20:41:02.471Z,9.45
2023-03-21T20:42:42.935Z,9.44
2023-03-21T20:46:03.717Z,9.41
2023-03-21T20:47:44.216Z,9.37
2023-03-21T20:49:24.539Z,9.37
2023-03-21T20:51:45.090Z,9.33
2023-03-21T20:53:04.526Z,9.3
2023-03-21T20:54:25.679Z,9.24
2023-03-21T20:56:06.140Z,9.21
2023-03-21T20:57:48.616Z,9.19
2023-03-21T20:59:28.214Z,9.19
2023-03-21T21:01:07.409Z,9.17
2023-03-21T21:02:47.797Z,9.14
2023-03-21T21:04:46.762Z,9.13
2023-03-21T21:06:08.532Z,9.07
2023-03-21T21:07:48.940Z,9
2023-03-21T21:09:29.313Z,8.96
2023-03-21T21:11:56.868Z,8.89
2023-03-21T21:12:50.140Z,8.83
2023-03-21T21:14:30.607Z,8.79
2023-03-21T21:16:11.063Z,8.73
2023-03-21T21:18:05.420Z,8.69
2023-03-21T21:19:31.819Z,8.63
2023-03-21T21:21:12.242Z,8.59
2023-03-21T21:22:59.481Z,8.52
2023-03-21T21:24:32.981Z,8.49
2023-03-21T21:26:13.319Z,8.47
2023-03-21T21:27:53.720Z,8.45
2023-03-21T21:29:34.009Z,8.47
2023-03-21T21:31:14.351Z,8.44
2023-03-21T21:32:54.807Z,8.42
2023-03-21T21:34:35.097Z,8.4
2023-03-21T21:36:15.540Z,8.35
2023-03-21T21:37:55.929Z,8.34
2023-03-21T21:39:36.253Z,8.31
2023-03-21T21:41:16.709Z,8.27
2023-03-21T21:42:57.136Z,8.21
2023-03-21T21:44:37.457Z,8.2
2023-03-21T21:46:17.774Z,8.15
2023-03-21T21:47:58.266Z,8.15
2023-03-21T21:49:38.621Z,8.17
2023-03-21T21:51:18.974Z,8.15
2023-03-21T21:52:59.368Z,8.14
2023-03-21T21:54:39.827Z,8.08
2023-03-21T21:56:20.218Z,8.07
2023-03-21T21:58:00.515Z,8.04
2023-03-21T21:59:40.961Z,8.01
2023-03-21T22:01:21.404Z,7.97
2023-03-21T22:03:01.833Z,7.96
2023-03-21T22:04:42.229Z,7.96
2023-03-21T22:06:22.652Z,7.98
2023-03-21T22:08:03.031Z,7.92
2023-03-21T22:09:43.489Z,7.85
2023-03-21T22:11:23.888Z,7.8
2023-03-21T22:13:04.274Z,7.77
2023-03-21T22:14:44.677Z,7.75